createdAt,value
2018-05-06T00:02:00.560Z,99807.98
2018-05-06T00:04:28.162Z,99813.11
2018-05-06T00:06:55.684Z,99807.09
2018-05-06T00:09:23.271Z,99810.00
2018-05-06T00:11:50.832Z,99804.77
2018-05-06T00:14:18.401Z,99803.67
2018-05-06T00:16:45.954Z,99807.09
2018-05-06T00:19:13.479Z,99802.28
2018-05-06T00:21:41.101Z,99804.27
2018-05-06T00:24:08.633Z,99810.86
2018-05-06T00:26:36.292Z,99807.11
2018-05-06T00:29:03.851Z,99803.20
2018-05-06T00:31:31.438Z,99796.17
2018-05-06T00:33:58.969Z,99800.73
2018-05-06T00:36:26.540Z,99800.28
2018-05-06T00:38:54.073Z,99796.97
2018-05-06T00:41:21.625Z,99801.88
2018-05-06T00:43:49.154Z,99797.07
2018-05-06T00:46:16.775Z,99794.72
2018-05-06T00:48:44.327Z,99791.24
2018-05-06T00:51:12.014Z,99795.23
2018-05-06T00:53:39.529Z,99787.89
2018-05-06T00:56:07.062Z,99790.63
2018-05-06T00:58:34.586Z,99782.46
2018-05-06T01:01:02.137Z,99786.08
2018-05-06T01:03:29.669Z,99784.27
2018-05-06T01:05:57.219Z,99783.64
2018-05-06T01:08:24.725Z,99786.63
2018-05-06T01:10:52.877Z,99787.94
2018-05-06T01:13:20.436Z,99783.48
2018-05-06T01:15:48.006Z,99784.62
2018-05-06T01:18:15.554Z,99787.16
2018-05-06T01:20:43.115Z,99791.19
2018-05-06T01:23:10.685Z,99784.61
2018-05-06T01:25:38.341Z,99782.37
2018-05-06T01:28:05.870Z,99786.91
2018-05-06T01:30:33.457Z,99787.47
2018-05-06T01:33:00.996Z,99785.70
2018-05-06T01:35:28.576Z,99792.33
2018-05-06T01:37:56.145Z,99784.78
2018-05-06T01:40:23.722Z,99784.96
2018-05-06T01:42:51.317Z,99785.25
2018-05-06T01:45:18.859Z,99791.68
2018-05-06T01:47:46.474Z,99795.07
2018-05-06T01:50:13.985Z,99799.11
2018-05-06T01:52:41.594Z,99797.36
2018-05-06T01:55:09.267Z,99796.16
2018-05-06T01:57:36.823Z,99802.45
2018-05-06T02:00:04.478Z,99806.13
2018-05-06T02:02:32.036Z,99795.55
2018-05-06T02:04:59.595Z,99797.19
2018-05-06T02:07:27.261Z,99793.48
2018-05-06T02:09:54.829Z,99798.94
2018-05-06T02:12:23.083Z,99802.66
2018-05-06T02:14:50.609Z,99804.54
2018-05-06T02:17:18.162Z,99810.52
2018-05-06T02:19:45.690Z,99809.63
2018-05-06T02:22:13.265Z,99815.38
2018-05-06T02:24:40.856Z,99814.28
2018-05-06T02:27:08.454Z,99819.86
2018-05-06T02:29:36.011Z,99824.57
2018-05-06T02:32:03.674Z,99820.89
2018-05-06T02:34:31.203Z,99824.54
2018-05-06T02:36:58.800Z,99827.91
2018-05-06T02:39:26.358Z,99830.20
2018-05-06T02:41:53.972Z,99831.98
2018-05-06T02:46:48.413Z,99825.95
2018-05-06T02:49:15.977Z,99832.13
2018-05-06T02:51:43.537Z,99833.63
2018-05-06T02:54:11.095Z,99826.64
2018-05-06T02:56:38.645Z,99831.30
2018-05-06T02:59:06.176Z,99829.17
2018-05-06T03:01:33.780Z,99832.80
2018-05-06T03:04:01.310Z,99834.64
2018-05-06T03:06:28.861Z,99836.97
2018-05-06T03:08:56.454Z,99837.87
2018-05-06T03:11:24.011Z,99838.08
2018-05-06T03:13:51.538Z,99832.95
2018-05-06T03:16:19.145Z,99841.66
2018-05-06T03:18:46.670Z,99831.41
2018-05-06T03:21:14.253Z,99831.88
2018-05-06T03:23:41.817Z,99838.63
2018-05-06T03:26:09.371Z,99831.23
2018-05-06T03:28:37.032Z,99833.43
2018-05-06T03:31:04.554Z,99839.06
2018-05-06T03:33:32.160Z,99833.89
2018-05-06T03:35:59.662Z,99832.24
2018-05-06T03:38:27.239Z,99832.28
2018-05-06T03:40:54.762Z,99842.45
2018-05-06T03:43:22.315Z,99843.00
2018-05-06T03:45:49.844Z,99842.06
2018-05-06T03:48:17.393Z,99841.48
2018-05-06T03:50:44.925Z,99840.87
2018-05-06T03:53:12.497Z,99845.41
2018-05-06T03:55:40.028Z,99838.65
2018-05-06T03:58:19.530Z,99841.73
2018-05-06T04:00:47.188Z,99841.31
2018-05-06T04:03:14.763Z,99841.46
2018-05-06T04:05:42.303Z,99845.22
2018-05-06T04:08:09.863Z,99842.67
2018-05-06T04:10:37.434Z,99841.84
2018-05-06T04:13:04.990Z,99839.25
2018-05-06T04:15:32.518Z,99837.00
2018-05-06T04:18:00.102Z,99841.38
2018-05-06T04:20:27.633Z,99838.98
2018-05-06T04:22:55.220Z,99849.17
2018-05-06T04:25:22.780Z,99851.50
2018-05-06T04:27:50.328Z,99854.22
2018-05-06T04:30:17.882Z,99847.44
2018-05-06T04:32:45.434Z,99845.51
2018-05-06T04:35:13.020Z,99844.77
2018-05-06T04:37:40.567Z,99844.97
2018-05-06T04:40:08.138Z,99845.41
2018-05-06T04:42:35.673Z,99853.96
2018-05-06T04:45:03.226Z,99851.52
2018-05-06T04:47:30.774Z,99853.67
2018-05-06T04:49:58.349Z,99856.63
2018-05-06T04:52:25.943Z,99862.62
2018-05-06T04:54:53.982Z,99862.01
2018-05-06T04:57:21.501Z,99858.63
2018-05-06T04:59:49.038Z,99864.36
2018-05-06T05:02:16.587Z,99870.98
2018-05-06T05:04:44.247Z,99864.52
2018-05-06T05:07:11.807Z,99873.88
2018-05-06T05:09:39.541Z,99868.94
2018-05-06T05:12:07.021Z,99871.00
2018-05-06T05:14:34.662Z,99869.05
2018-05-06T05:17:02.172Z,99875.52
2018-05-06T05:19:29.730Z,99870.75
2018-05-06T05:21:57.258Z,99875.34
2018-05-06T05:24:24.806Z,99874.14
2018-05-06T05:26:52.386Z,99873.35
2018-05-06T05:29:19.939Z,99864.84
2018-05-06T05:31:47.517Z,99867.86
2018-05-06T05:34:15.070Z,99872.63
2018-05-06T05:36:42.617Z,99870.41
2018-05-06T05:39:10.173Z,99868.98
2018-05-06T05:41:37.673Z,99869.23
2018-05-06T05:44:05.224Z,99866.11
2018-05-06T05:46:34.279Z,99873.16
2018-05-06T05:49:01.854Z,99873.82
2018-05-06T05:51:29.406Z,99877.02
2018-05-06T05:53:56.922Z,99873.04
2018-05-06T05:56:26.541Z,99865.09
2018-05-06T05:58:55.650Z,99872.33
2018-05-06T06:01:23.348Z,99875.66
2018-05-06T06:03:51.617Z,99879.08
2018-05-06T06:06:19.186Z,99877.81
2018-05-06T06:08:47.862Z,99882.49
2018-05-06T06:11:18.895Z,99879.44
2018-05-06T06:13:49.499Z,99879.11
2018-05-06T06:16:17.783Z,99888.17
2018-05-06T06:18:45.985Z,99883.55
2018-05-06T06:21:16.820Z,99888.75
2018-05-06T06:23:46.325Z,99887.28
2018-05-06T06:26:14.934Z,99885.94
2018-05-06T06:28:44.365Z,99890.22
2018-05-06T06:31:12.017Z,99886.97
2018-05-06T06:33:40.527Z,99887.02
2018-05-06T06:36:08.098Z,99890.50
2018-05-06T06:38:36.193Z,99895.73
2018-05-06T06:41:03.954Z,99889.37
2018-05-06T06:43:33.574Z,99888.72
2018-05-06T06:46:04.363Z,99893.00
2018-05-06T06:48:33.456Z,99887.52
2018-05-06T06:51:01.052Z,99885.73
2018-05-06T06:53:28.613Z,99887.95
2018-05-06T06:55:56.439Z,99884.66
2018-05-06T06:58:26.142Z,99882.14
2018-05-06T07:00:55.326Z,99890.16
2018-05-06T07:03:24.247Z,99886.17
2018-05-06T07:05:52.115Z,99888.95
2018-05-06T07:08:19.727Z,99880.88
2018-05-06T07:10:50.491Z,99887.22
2018-05-06T07:13:18.399Z,99891.09
2018-05-06T07:15:48.971Z,99899.23
2018-05-06T07:18:16.737Z,99885.61
2018-05-06T07:20:44.294Z,99893.39
2018-05-06T07:23:11.923Z,99886.76
2018-05-06T07:25:39.484Z,99890.06
2018-05-06T07:28:07.043Z,99887.98
2018-05-06T07:30:37.338Z,99888.81
2018-05-06T07:33:06.238Z,99886.51
2018-05-06T07:35:35.748Z,99885.33
2018-05-06T07:38:04.450Z,99877.73
2018-05-06T07:40:34.889Z,99879.52
2018-05-06T07:43:02.713Z,99885.05
2018-05-06T07:45:32.851Z,99880.73
2018-05-06T07:48:01.058Z,99882.86
2018-05-06T07:50:30.093Z,99887.54
2018-05-06T07:52:59.615Z,99881.81
2018-05-06T07:55:29.040Z,99886.28
2018-05-06T07:57:57.505Z,99875.56
2018-05-06T08:00:31.111Z,99880.77
2018-05-06T08:02:59.597Z,99883.84
2018-05-06T08:05:30.471Z,99880.76
2018-05-06T08:08:09.811Z,99888.03
2018-05-06T08:10:40.725Z,99881.10
2018-05-06T08:13:09.314Z,99890.52
2018-05-06T08:15:37.985Z,99889.27
2018-05-06T08:18:07.872Z,99890.42
2018-05-06T08:20:39.471Z,99885.38
2018-05-06T08:23:08.219Z,99878.80
2018-05-06T08:25:35.803Z,99873.20
2018-05-06T08:28:03.649Z,99879.62
2018-05-06T08:30:31.182Z,99874.02
2018-05-06T08:32:59.785Z,99877.16
2018-05-06T08:35:28.593Z,99878.92
2018-05-06T08:37:57.783Z,99870.90
2018-05-06T08:40:30.542Z,99864.57
2018-05-06T08:43:02.039Z,99871.66
2018-05-06T08:45:34.744Z,99868.72
2018-05-06T08:48:03.469Z,99859.31
2018-05-06T08:50:32.693Z,99858.87
2018-05-06T08:53:03.648Z,99866.63
2018-05-06T08:55:31.769Z,99863.46
2018-05-06T09:00:39.959Z,99859.33
2018-05-06T09:03:18.735Z,99859.88
2018-05-06T09:05:48.311Z,99860.19
2018-05-06T09:08:18.305Z,99860.98
2018-05-06T09:10:49.178Z,99846.72
2018-05-06T09:13:19.361Z,99850.70
2018-05-06T09:15:50.789Z,99853.87
2018-05-06T09:18:20.416Z,99847.03
2018-05-06T09:20:53.148Z,99837.70
2018-05-06T09:23:27.520Z,99837.70
2018-05-06T09:25:58.026Z,99833.13
2018-05-06T09:28:31.757Z,99837.08
2018-05-06T09:31:02.480Z,99839.53
2018-05-06T09:33:34.338Z,99835.52
2018-05-06T09:36:05.240Z,99835.55
2018-05-06T09:38:33.187Z,99840.42
2018-05-06T09:41:01.135Z,99836.37
2018-05-06T09:43:30.787Z,99836.67
2018-05-06T09:45:59.797Z,99831.98
2018-05-06T09:48:30.125Z,99831.77
2018-05-06T09:50:59.805Z,99825.70
2018-05-06T09:53:31.003Z,99821.49
2018-05-06T09:56:05.408Z,99831.20
2018-05-06T09:58:36.756Z,99825.67
2018-05-06T10:01:07.982Z,99829.14
2018-05-06T10:03:40.960Z,99826.19
2018-05-06T10:06:12.362Z,99823.89
2018-05-06T10:08:43.114Z,99823.69
2018-05-06T10:11:14.223Z,99825.36
2018-05-06T10:13:45.623Z,99819.59
2018-05-06T10:16:16.898Z,99824.80
2018-05-06T10:18:49.192Z,99826.11
2018-05-06T10:21:20.357Z,99822.53
2018-05-06T10:23:51.479Z,99829.32
2018-05-06T10:26:22.626Z,99827.49
2018-05-06T10:28:55.451Z,99828.83
2018-05-06T10:31:26.390Z,99823.34
2018-05-06T10:33:58.641Z,99819.72
2018-05-06T10:36:30.595Z,99815.98
2018-05-06T10:39:00.309Z,99820.56
2018-05-06T10:41:31.687Z,99813.66
2018-05-06T10:44:04.190Z,99824.72
2018-05-06T10:46:35.795Z,99811.43
2018-05-06T10:51:42.654Z,99804.84
2018-05-06T10:54:12.072Z,99790.42
2018-05-06T10:56:43.407Z,99797.97
2018-05-06T10:59:14.730Z,99801.50
2018-05-06T11:01:45.684Z,99796.48
2018-05-06T11:04:16.415Z,99788.98
2018-05-06T11:06:46.633Z,99787.16
2018-05-06T11:09:18.096Z,99791.88
2018-05-06T11:11:49.178Z,99784.91
2018-05-06T11:14:19.985Z,99784.00
2018-05-06T11:19:15.608Z,99779.93
2018-05-06T11:21:47.094Z,99777.88
2018-05-06T11:24:18.534Z,99774.05
2018-05-06T11:26:51.636Z,99758.77
2018-05-06T11:29:22.236Z,99758.52
2018-05-06T11:31:53.634Z,99767.55
2018-05-06T11:34:27.784Z,99761.19
2018-05-06T11:36:55.390Z,99762.50
2018-05-06T11:39:22.969Z,99762.41
2018-05-06T11:41:50.499Z,99763.17
2018-05-06T11:44:18.118Z,99751.47
2018-05-06T11:46:47.735Z,99748.71
2018-05-06T11:49:16.511Z,99750.37
2018-05-06T11:51:44.175Z,99739.30
2018-05-06T11:54:11.763Z,99740.22
2018-05-06T11:56:39.297Z,99738.77
2018-05-06T11:59:06.966Z,99738.50
2018-05-06T12:01:34.495Z,99737.47
2018-05-06T12:04:02.179Z,99732.73
2018-05-06T12:06:30.624Z,99731.22
2018-05-06T12:08:58.174Z,99723.77
2018-05-06T12:11:25.788Z,99719.58
2018-05-06T12:13:53.357Z,99721.95
2018-05-06T12:16:21.004Z,99715.01
2018-05-06T12:18:51.552Z,99710.16
2018-05-06T12:21:22.887Z,99708.15
2018-05-06T12:23:54.137Z,99704.07
2018-05-06T12:26:25.400Z,99698.11
2018-05-06T12:28:55.539Z,99698.51
2018-05-06T12:31:26.790Z,99701.59
2018-05-06T12:33:58.063Z,99688.41
2018-05-06T12:36:30.078Z,99688.41
2018-05-06T12:39:01.415Z,99695.42
2018-05-06T12:41:33.010Z,99691.66
2018-05-06T12:44:04.673Z,99691.27
2018-05-06T12:46:35.633Z,99694.73
2018-05-06T12:49:06.607Z,99690.02
2018-05-06T12:51:38.462Z,99682.39
2018-05-06T12:54:09.973Z,99684.56
2018-05-06T12:56:41.238Z,99689.55
2018-05-06T12:59:12.679Z,99679.39
2018-05-06T13:01:44.172Z,99682.52
2018-05-06T13:04:16.977Z,99675.48
2018-05-06T13:06:50.989Z,99681.13
2018-05-06T13:09:22.278Z,99678.19
2018-05-06T13:11:50.564Z,99671.23
2018-05-06T13:14:21.517Z,99666.59
2018-05-06T13:16:53.749Z,99665.00
2018-05-06T13:19:21.538Z,99670.04
2018-05-06T13:21:49.196Z,99666.31
2018-05-06T13:24:16.715Z,99657.86
2018-05-06T13:26:44.297Z,99667.11
2018-05-06T13:29:11.827Z,99660.11
2018-05-06T13:31:39.374Z,99656.97
2018-05-06T13:34:07.003Z,99657.56
2018-05-06T13:36:34.657Z,99658.69
2018-05-06T13:39:02.210Z,99658.13
2018-05-06T13:41:29.808Z,99647.39
2018-05-06T13:43:57.430Z,99647.28
2018-05-06T13:46:25.009Z,99647.02
2018-05-06T13:48:52.568Z,99642.37
2018-05-06T13:51:20.116Z,99636.14
2018-05-06T13:53:47.675Z,99633.86
2018-05-06T13:56:15.246Z,99631.61
2018-05-06T13:58:42.777Z,99625.59
2018-05-06T14:01:10.353Z,99622.48
2018-05-06T14:03:37.877Z,99625.38
2018-05-06T14:06:05.454Z,99616.66
2018-05-06T14:08:33.749Z,99616.70
2018-05-06T14:11:01.349Z,99612.91
2018-05-06T14:13:28.890Z,99618.12
2018-05-06T14:15:56.598Z,99607.23
2018-05-06T14:18:26.918Z,99604.69
2018-05-06T14:20:54.693Z,99594.75
2018-05-06T14:23:22.224Z,99600.89
2018-05-06T14:25:49.773Z,99597.03
2018-05-06T14:28:17.300Z,99592.48
2018-05-06T14:30:44.963Z,99597.87
2018-05-06T14:33:12.520Z,99601.99
2018-05-06T14:35:40.181Z,99600.32
2018-05-06T14:38:07.705Z,99597.57
2018-05-06T14:40:37.678Z,99592.76
2018-05-06T14:43:08.466Z,99600.45
2018-05-06T14:45:39.128Z,99598.95
2018-05-06T14:48:17.177Z,99588.58
2018-05-06T14:50:46.581Z,99583.52
2018-05-06T14:53:16.495Z,99596.14
2018-05-06T14:55:46.683Z,99589.78
2018-05-06T14:58:14.823Z,99596.37
2018-05-06T15:00:45.385Z,99586.97
2018-05-06T15:03:13.106Z,99589.28
2018-05-06T15:05:40.696Z,99596.87
2018-05-06T15:08:09.391Z,99591.08
2018-05-06T15:10:37.633Z,99588.09
2018-05-06T15:13:05.138Z,99592.79
2018-05-06T15:15:32.776Z,99587.57
2018-05-06T15:18:00.344Z,99589.84
2018-05-06T15:20:27.898Z,99587.48
2018-05-06T15:22:55.510Z,99588.77
2018-05-06T15:25:23.051Z,99583.66
2018-05-06T15:27:50.605Z,99587.27
2018-05-06T15:30:18.234Z,99589.37
2018-05-06T15:32:45.810Z,99590.08
2018-05-06T15:35:13.334Z,99586.71
2018-05-06T15:37:40.914Z,99582.31
2018-05-06T15:40:08.512Z,99575.41
2018-05-06T15:42:37.158Z,99580.09
2018-05-06T15:45:05.436Z,99582.45
2018-05-06T15:47:33.099Z,99580.01
2018-05-06T15:50:00.656Z,99583.31
2018-05-06T15:52:28.177Z,99581.31
2018-05-06T15:54:55.754Z,99570.58
2018-05-06T15:57:23.744Z,99573.47
2018-05-06T15:59:51.303Z,99580.02
2018-05-06T16:05:31.790Z,99575.81
2018-05-06T16:07:59.345Z,99569.77
2018-05-06T16:10:27.009Z,99566.05
2018-05-06T16:12:55.247Z,99572.75
2018-05-06T16:15:22.797Z,99570.71
2018-05-06T16:17:50.405Z,99569.59
2018-05-06T16:20:18.099Z,99574.25
2018-05-06T16:22:45.582Z,99574.27
2018-05-06T16:25:13.186Z,99571.32
2018-05-06T16:27:40.753Z,99563.37
2018-05-06T16:30:09.431Z,99563.00
2018-05-06T16:32:37.082Z,99570.99
2018-05-06T16:35:04.767Z,99565.11
2018-05-06T16:37:32.419Z,99568.66
2018-05-06T16:40:00.023Z,99567.67
2018-05-06T16:42:27.574Z,99560.32
2018-05-06T16:44:55.124Z,99568.56
2018-05-06T16:47:22.655Z,99565.05
2018-05-06T16:49:50.316Z,99562.59
2018-05-06T16:52:17.883Z,99556.06
2018-05-06T16:54:45.463Z,99564.56
2018-05-06T16:57:12.994Z,99552.46
2018-05-06T16:59:40.552Z,99562.98
2018-05-06T17:02:08.113Z,99562.06
2018-05-06T17:04:35.671Z,99583.30
2018-05-06T17:07:03.224Z,99576.38
2018-05-06T17:09:30.799Z,99579.25
2018-05-06T17:11:58.365Z,99578.95
2018-05-06T17:14:25.902Z,99580.64
2018-05-06T17:16:53.481Z,99576.61
2018-05-06T17:19:21.134Z,99578.70
2018-05-06T17:21:48.702Z,99582.74
2018-05-06T17:24:16.260Z,99585.45
2018-05-06T17:26:43.915Z,99583.88
2018-05-06T17:29:11.462Z,99577.52
2018-05-06T17:31:39.067Z,99582.81
2018-05-06T17:34:07.573Z,99581.59
2018-05-06T17:36:35.177Z,99581.52
2018-05-06T17:39:02.697Z,99578.91
2018-05-06T17:41:30.294Z,99576.42
2018-05-06T17:44:01.673Z,99581.09
2018-05-06T17:46:32.196Z,99581.25
2018-05-06T17:49:02.158Z,99582.64
2018-05-06T17:51:32.460Z,99581.80
2018-05-06T17:54:04.191Z,99583.16
2018-05-06T17:56:33.684Z,99576.84
2018-05-06T17:59:02.987Z,99568.20
2018-05-06T18:01:31.307Z,99576.39
2018-05-06T18:03:58.912Z,99575.89
2018-05-06T18:06:26.977Z,99575.55
2018-05-06T18:08:55.066Z,99570.17
2018-05-06T18:11:24.359Z,99569.16
2018-05-06T18:13:52.532Z,99571.25
2018-05-06T18:16:20.655Z,99574.45
2018-05-06T18:18:48.961Z,99568.55
2018-05-06T18:21:17.420Z,99569.30
2018-05-06T18:23:47.585Z,99567.92
2018-05-06T18:26:18.217Z,99562.94
2018-05-06T18:28:54.681Z,99565.63
2018-05-06T18:31:22.296Z,99565.02
2018-05-06T18:33:57.036Z,99566.81
2018-05-06T18:36:29.925Z,99567.76
2018-05-06T18:38:58.326Z,99563.60
2018-05-06T18:41:27.727Z,99573.08
2018-05-06T18:43:56.108Z,99575.20
2018-05-06T18:46:24.948Z,99567.27
2018-05-06T18:48:57.663Z,99566.91
2018-05-06T18:51:28.450Z,99570.07
2018-05-06T18:54:01.117Z,99572.66
2018-05-06T18:56:30.399Z,99572.78
2018-05-06T18:58:58.892Z,99566.55
2018-05-06T19:01:27.168Z,99565.55
2018-05-06T19:03:56.307Z,99563.16
2018-05-06T19:06:29.071Z,99563.31
2018-05-06T19:08:57.954Z,99573.87
2018-05-06T19:11:26.111Z,99573.72
2018-05-06T19:13:54.527Z,99579.22
2018-05-06T19:16:23.721Z,99580.27
2018-05-06T19:18:52.164Z,99584.46
2018-05-06T19:21:20.345Z,99587.21
2018-05-06T19:23:48.516Z,99575.80
2018-05-06T19:26:16.779Z,99573.56
2018-05-06T19:28:46.593Z,99579.46
2018-05-06T19:31:14.562Z,99592.03
2018-05-06T19:33:42.837Z,99593.30
2018-05-06T19:36:10.927Z,99592.59
2018-05-06T19:38:38.984Z,99587.90
2018-05-06T19:41:10.744Z,99589.83
2018-05-06T19:43:38.859Z,99582.64
2018-05-06T19:46:06.437Z,99580.97
2018-05-06T19:48:34.572Z,99584.11
2018-05-06T19:51:02.205Z,99585.17
2018-05-06T19:53:30.741Z,99584.27
2018-05-06T19:55:59.009Z,99587.00
2018-05-06T19:58:27.763Z,99591.58
2018-05-06T20:00:55.358Z,99595.98
2018-05-06T20:03:22.950Z,99598.64
2018-05-06T20:05:50.721Z,99602.19
2018-05-06T20:08:18.369Z,99607.09
2018-05-06T20:10:46.062Z,99611.86
2018-05-06T20:13:16.877Z,99613.18
2018-05-06T20:15:44.861Z,99615.80
2018-05-06T20:18:12.518Z,99615.64
2018-05-06T20:20:40.100Z,99612.41
2018-05-06T20:23:19.320Z,99607.42
2018-05-06T20:26:01.274Z,99611.60
2018-05-06T20:28:32.852Z,99615.52
2018-05-06T20:31:01.114Z,99620.30
2018-05-06T20:33:28.758Z,99622.64
2018-05-06T20:35:56.284Z,99620.81
2018-05-06T20:38:23.948Z,99629.13
2018-05-06T20:40:51.548Z,99619.87
2018-05-06T20:43:19.089Z,99618.89
2018-05-06T20:45:46.708Z,99616.27
2018-05-06T20:48:14.244Z,99617.88
2018-05-06T20:50:42.573Z,99625.38
2018-05-06T20:53:10.098Z,99626.13
2018-05-06T20:55:37.650Z,99624.02
2018-05-06T20:58:05.222Z,99625.20
2018-05-06T21:00:33.480Z,99624.55
2018-05-06T21:03:01.734Z,99627.01
2018-05-06T21:05:30.021Z,99622.56
2018-05-06T21:07:57.836Z,99625.53
2018-05-06T21:10:25.599Z,99627.77
2018-05-06T21:12:53.317Z,99630.88
2018-05-06T21:15:21.582Z,99620.22
2018-05-06T21:17:49.285Z,99627.81
2018-05-06T21:20:17.276Z,99624.16
2018-05-06T21:22:45.053Z,99627.23
2018-05-06T21:25:13.191Z,99619.02
2018-05-06T21:27:41.908Z,99621.66
2018-05-06T21:30:09.681Z,99620.08
2018-05-06T21:32:38.223Z,99615.72
2018-05-06T21:35:06.202Z,99616.76
2018-05-06T21:37:34.848Z,99609.78
2018-05-06T21:40:02.991Z,99605.09
2018-05-06T21:42:30.643Z,99604.02
2018-05-06T21:44:58.245Z,99602.13
2018-05-06T21:47:25.948Z,99605.55
2018-05-06T21:49:54.046Z,99606.06
2018-05-06T21:52:21.750Z,99611.06
2018-05-06T21:54:50.056Z,99608.25
2018-05-06T21:57:17.658Z,99609.63
2018-05-06T21:59:45.625Z,99606.77
2018-05-06T22:02:14.660Z,99615.17
2018-05-06T22:04:42.962Z,99614.27
2018-05-06T22:07:10.860Z,99612.36
2018-05-06T22:09:38.945Z,99610.87
2018-05-06T22:12:07.252Z,99614.57
2018-05-06T22:14:35.234Z,99613.48
2018-05-06T22:17:02.824Z,99614.86
2018-05-06T22:19:30.376Z,99614.92
2018-05-06T22:21:57.928Z,99609.03
2018-05-06T22:24:25.730Z,99617.47
2018-05-06T22:26:53.343Z,99614.80
2018-05-06T22:29:20.861Z,99611.16
2018-05-06T22:31:48.481Z,99609.77
2018-05-06T22:34:16.102Z,99605.17
2018-05-06T22:36:44.265Z,99608.37
2018-05-06T22:39:11.822Z,99612.41
2018-05-06T22:41:39.460Z,99609.23
2018-05-06T22:44:06.999Z,99598.46
2018-05-06T22:46:34.551Z,99609.50
2018-05-06T22:49:02.081Z,99604.24
2018-05-06T22:51:29.756Z,99603.50
2018-05-06T22:53:57.310Z,99601.72
2018-05-06T22:56:24.837Z,99596.58
2018-05-06T22:58:52.430Z,99594.80
2018-05-06T23:01:20.093Z,99587.25
2018-05-06T23:03:47.663Z,99584.80
2018-05-06T23:06:15.319Z,99578.45
2018-05-06T23:08:42.977Z,99578.30
2018-05-06T23:11:10.553Z,99580.64
2018-05-06T23:13:38.196Z,99582.80
2018-05-06T23:16:05.757Z,99579.50
2018-05-06T23:18:33.431Z,99585.02
2018-05-06T23:21:01.010Z,99580.06
2018-05-06T23:23:28.584Z,99583.66
2018-05-06T23:25:56.100Z,99589.33
2018-05-06T23:28:23.760Z,99583.02
2018-05-06T23:30:51.319Z,99582.87
2018-05-06T23:33:18.888Z,99584.23
2018-05-06T23:35:46.929Z,99556.63
2018-05-06T23:38:14.510Z,99577.59
2018-05-06T23:40:42.074Z,99583.78
2018-05-06T23:43:09.629Z,99588.08
2018-05-06T23:45:37.481Z,99582.53
2018-05-06T23:48:05.060Z,99581.36
2018-05-06T23:50:32.614Z,99578.19
2018-05-06T23:53:00.174Z,99568.44
2018-05-06T23:55:27.737Z,99575.85
2018-05-06T23:57:55.265Z,99568.06
